createdAt,value
2023-08-14T00:02:06.384Z,6.00
2023-08-14T00:07:08.640Z,4.60
2023-08-14T00:12:10.866Z,4.13
2023-08-14T00:17:13.083Z,3.75
2023-08-14T00:22:15.548Z,4.75
2023-08-14T00:27:17.899Z,3.03
2023-08-14T00:32:20.299Z,4.50
2023-08-14T00:37:24.410Z,3.80
2023-08-14T00:42:26.568Z,6.70
2023-08-14T00:47:28.770Z,3.35
2023-08-14T00:52:33.336Z,4.07
2023-08-14T00:57:37.067Z,5.03
2023-08-14T01:02:39.977Z,3.90
2023-08-14T01:07:42.133Z,7.00
2023-08-14T01:12:54.616Z,3.63
2023-08-14T01:18:03.082Z,5.95
2023-08-14T01:23:18.790Z,2.72
2023-08-14T01:28:21.752Z,6.90
2023-08-14T01:33:23.971Z,2.50
2023-08-14T01:38:48.665Z,4.88
2023-08-14T01:43:56.245Z,5.15
2023-08-14T01:49:00.686Z,4.57
2023-08-14T01:54:03.032Z,3.03
2023-08-14T01:59:05.185Z,3.30
2023-08-14T02:04:10.332Z,3.00
2023-08-14T02:09:12.653Z,2.90
2023-08-14T02:14:14.771Z,3.70
2023-08-14T02:19:17.301Z,1.25
2023-08-14T02:24:19.520Z,1.25
2023-08-14T02:29:22.464Z,2.67
2023-08-14T02:34:44.204Z,3.25
2023-08-14T02:39:47.147Z,0.90
2023-08-14T02:44:49.706Z,2.33
2023-08-14T02:49:52.249Z,1.60
2023-08-14T02:54:54.473Z,1.23
2023-08-14T02:59:56.690Z,1.67
2023-08-14T03:04:58.905Z,1.98
2023-08-14T03:10:01.157Z,3.03
2023-08-14T03:15:03.844Z,2.30
2023-08-14T03:20:07.464Z,2.05
2023-08-14T03:25:10.010Z,4.15
2023-08-14T03:30:14.095Z,2.53
2023-08-14T03:35:16.423Z,3.58
2023-08-14T03:40:18.825Z,2.42
2023-08-14T03:45:21.558Z,3.47
2023-08-14T03:50:23.876Z,2.95
2023-08-14T03:55:26.121Z,2.15
2023-08-14T04:00:28.349Z,3.03
2023-08-14T04:05:30.554Z,3.72
2023-08-14T04:10:33.360Z,2.65
2023-08-14T04:15:35.552Z,3.90
2023-08-14T04:20:37.753Z,3.58
2023-08-14T04:25:40.037Z,3.35
2023-08-14T04:30:42.469Z,3.35
2023-08-14T04:35:44.818Z,4.25
2023-08-14T04:40:47.061Z,4.18
2023-08-14T04:45:49.569Z,3.40
2023-08-14T04:50:52.374Z,4.47
2023-08-14T04:55:54.826Z,3.67
2023-08-14T05:00:57.542Z,5.35
2023-08-14T05:05:59.785Z,3.38
2023-08-14T05:11:03.260Z,4.60
2023-08-14T05:16:08.866Z,5.10
2023-08-14T05:21:13.153Z,11.27
2023-08-14T05:26:15.393Z,5.15
2023-08-14T05:31:17.649Z,4.93
2023-08-14T05:36:19.858Z,4.93
2023-08-14T05:41:23.068Z,5.88
2023-08-14T05:46:25.700Z,4.22
2023-08-14T05:51:28.017Z,3.67
2023-08-14T05:56:30.178Z,4.18
2023-08-14T06:01:32.499Z,5.55
2023-08-14T06:06:35.028Z,5.05
2023-08-14T06:11:37.157Z,7.25
2023-08-14T06:16:39.375Z,5.15
2023-08-14T06:21:41.797Z,5.28
2023-08-14T06:26:43.926Z,6.03
2023-08-14T06:31:46.116Z,6.82
2023-08-14T06:36:48.308Z,7.68
2023-08-14T06:41:50.594Z,7.60
2023-08-14T06:46:54.696Z,6.55
2023-08-14T06:51:57.004Z,5.97
2023-08-14T06:56:59.677Z,4.45
2023-08-14T07:02:02.430Z,8.43
2023-08-14T07:07:04.589Z,5.28
2023-08-14T07:12:06.999Z,7.47
2023-08-14T07:17:09.300Z,5.55
2023-08-14T07:22:11.529Z,7.88
2023-08-14T07:27:13.628Z,4.63
2023-08-14T07:32:16.174Z,6.72
2023-08-14T07:37:18.671Z,4.72
2023-08-14T07:42:21.202Z,5.40
2023-08-14T07:47:23.974Z,5.65
2023-08-14T07:52:28.716Z,4.93
2023-08-14T07:57:31.025Z,4.53
2023-08-14T08:02:33.325Z,6.13
2023-08-14T08:07:35.663Z,6.13
2023-08-14T08:12:37.997Z,6.25
2023-08-14T08:17:40.650Z,9.50
2023-08-14T08:22:42.946Z,9.32
2023-08-14T08:27:45.092Z,6.85
2023-08-14T08:32:47.361Z,6.72
2023-08-14T08:37:49.525Z,7.03
2023-08-14T08:42:52.702Z,8.75
2023-08-14T08:47:57.817Z,5.68
2023-08-14T08:53:00.502Z,5.35
2023-08-14T08:58:03.425Z,5.68
2023-08-14T09:03:06.016Z,7.18
2023-08-14T09:08:09.912Z,4.05
2023-08-14T09:18:19.234Z,5.40
2023-08-14T09:23:21.634Z,6.22
2023-08-14T09:28:23.773Z,6.00
2023-08-14T09:33:26.088Z,4.45
2023-08-14T09:38:28.627Z,6.05
2023-08-14T09:43:32.475Z,4.63
2023-08-14T09:48:45.902Z,4.70
2023-08-14T09:53:51.826Z,4.72
2023-08-14T09:58:56.090Z,3.90
2023-08-14T10:03:58.741Z,4.30
2023-08-14T10:09:03.709Z,5.45
2023-08-14T10:14:07.651Z,4.30
2023-08-14T10:19:13.835Z,6.43
2023-08-14T10:24:16.700Z,5.60
2023-08-14T10:29:19.157Z,6.13
2023-08-14T10:34:22.716Z,7.38
2023-08-14T10:39:36.143Z,5.95
2023-08-14T10:44:38.637Z,5.45
2023-08-14T10:49:49.780Z,5.38
2023-08-14T10:54:53.379Z,4.97
2023-08-14T10:59:57.659Z,7.30
2023-08-14T11:05:13.623Z,6.32
2023-08-14T11:10:16.362Z,10.23
2023-08-14T11:15:21.526Z,7.30
2023-08-14T11:20:26.454Z,7.88
2023-08-14T11:25:28.892Z,7.82
2023-08-14T11:30:36.007Z,8.13
2023-08-14T11:35:38.334Z,6.15
2023-08-14T11:40:43.742Z,5.55
2023-08-14T11:45:46.111Z,6.57
2023-08-14T11:50:48.784Z,6.32
2023-08-14T11:55:51.412Z,8.57
2023-08-14T12:00:53.954Z,7.50
2023-08-14T12:06:05.184Z,10.90
2023-08-14T12:11:08.485Z,9.98
2023-08-14T12:16:17.781Z,7.43
2023-08-14T12:21:21.536Z,8.80
2023-08-14T12:26:24.018Z,12.82
2023-08-14T12:31:26.262Z,6.32
2023-08-14T12:36:28.572Z,5.97
2023-08-14T12:41:31.215Z,8.77
2023-08-14T12:46:33.594Z,9.25
2023-08-14T12:51:36.960Z,6.68
2023-08-14T12:56:39.435Z,6.50
2023-08-14T13:01:47.267Z,6.05
2023-08-14T13:06:51.030Z,6.68
2023-08-14T13:11:53.329Z,7.90
2023-08-14T13:16:55.667Z,7.00
2023-08-14T13:21:58.015Z,8.15
2023-08-14T13:27:08.625Z,8.63
2023-08-14T13:32:12.059Z,6.47
2023-08-14T13:37:14.204Z,6.70
2023-08-14T13:42:16.621Z,9.73
2023-08-14T13:47:19.164Z,8.52
2023-08-14T13:52:21.533Z,5.82
2023-08-14T13:57:23.807Z,6.38
2023-08-14T14:02:26.018Z,5.75
2023-08-14T14:07:32.077Z,7.32
2023-08-14T14:12:39.230Z,7.75
2023-08-14T14:17:41.713Z,8.55
2023-08-14T14:22:44.246Z,6.53
2023-08-14T14:27:46.494Z,8.00
2023-08-14T14:32:48.691Z,8.50
2023-08-14T14:37:50.826Z,5.15
2023-08-14T14:42:53.194Z,7.72
2023-08-14T14:47:55.375Z,6.15
2023-08-14T14:52:58.230Z,7.28
2023-08-14T14:58:00.386Z,10.85
2023-08-14T15:03:02.952Z,8.68
2023-08-14T15:08:05.318Z,12.52
2023-08-14T15:13:07.582Z,12.40
2023-08-14T15:18:10.217Z,8.52
2023-08-14T15:23:12.618Z,12.75
2023-08-14T15:28:14.853Z,9.02
2023-08-14T15:33:16.990Z,9.60
2023-08-14T15:38:19.429Z,10.18
2023-08-14T15:43:21.924Z,6.13
2023-08-14T15:48:24.131Z,6.32
2023-08-14T15:53:26.352Z,12.38
2023-08-14T15:58:28.556Z,10.77
2023-08-14T16:03:31.197Z,5.57
2023-08-14T16:08:33.512Z,6.38
2023-08-14T16:13:35.650Z,9.85
2023-08-14T16:18:38.138Z,8.55
2023-08-14T16:23:40.376Z,7.28
2023-08-14T16:28:42.653Z,10.63
2023-08-14T16:33:46.596Z,7.72
2023-08-14T16:38:48.809Z,6.78
2023-08-14T16:43:51.074Z,7.90
2023-08-14T16:48:53.638Z,8.75
2023-08-14T16:53:56.361Z,8.50
2023-08-14T16:58:58.586Z,8.45
2023-08-14T17:04:00.939Z,8.90
2023-08-14T17:09:03.210Z,10.27
2023-08-14T17:14:05.516Z,8.13
2023-08-14T17:19:07.739Z,7.80
2023-08-14T17:24:10.175Z,11.32
2023-08-14T17:29:12.386Z,11.73
2023-08-14T17:34:15.496Z,12.35
2023-08-14T17:39:17.796Z,9.18
2023-08-14T17:44:19.910Z,9.95
2023-08-14T17:49:22.124Z,11.38
2023-08-14T17:54:24.392Z,13.82
2023-08-14T17:59:26.552Z,19.60
2023-08-14T18:04:28.773Z,20.05
2023-08-14T18:09:30.840Z,9.50
2023-08-14T18:14:32.983Z,13.02
2023-08-14T18:19:35.144Z,11.07
2023-08-14T18:24:37.447Z,13.15
2023-08-14T18:29:39.654Z,12.02
2023-08-14T18:34:43.983Z,12.38
2023-08-14T18:39:46.200Z,13.02
2023-08-14T18:44:48.296Z,12.35
2023-08-14T18:49:50.471Z,12.57
2023-08-14T18:54:52.549Z,12.10
2023-08-14T18:59:54.685Z,11.65
2023-08-14T19:04:57.210Z,12.95
2023-08-14T19:09:59.551Z,12.63
2023-08-14T19:15:01.666Z,13.80
2023-08-14T19:20:06.152Z,9.70
2023-08-14T19:25:09.752Z,11.55
2023-08-14T19:30:12.538Z,11.20
2023-08-14T19:35:14.639Z,10.05
2023-08-14T19:40:16.825Z,9.68
2023-08-14T19:45:18.997Z,12.60
2023-08-14T19:50:21.227Z,11.50
2023-08-14T19:55:23.493Z,8.77
2023-08-14T20:00:26.282Z,9.27
2023-08-14T20:05:28.706Z,14.68
2023-08-14T20:10:30.817Z,8.10
2023-08-14T20:15:35.942Z,6.93
2023-08-14T20:20:41.909Z,9.25
2023-08-14T20:25:46.368Z,10.10
2023-08-14T20:30:48.622Z,6.72
2023-08-14T20:35:50.919Z,6.95
2023-08-14T20:40:55.687Z,8.48
2023-08-14T20:45:57.965Z,7.43
2023-08-14T20:51:03.086Z,7.20
2023-08-14T20:56:05.533Z,7.03
2023-08-14T21:01:07.612Z,9.65
2023-08-14T21:06:09.762Z,7.43
2023-08-14T21:11:15.183Z,7.43
2023-08-14T21:16:17.508Z,7.97
2023-08-14T21:21:20.702Z,9.88
2023-08-14T21:26:22.784Z,7.50
2023-08-14T21:31:24.942Z,7.57
2023-08-14T21:36:27.237Z,8.75
2023-08-14T21:41:29.409Z,10.98
2023-08-14T21:46:34.251Z,8.57
2023-08-14T21:51:37.453Z,7.57
2023-08-14T21:56:39.772Z,9.30
2023-08-14T22:01:43.983Z,10.13
2023-08-14T22:06:46.400Z,7.97
2023-08-14T22:11:48.566Z,9.93
2023-08-14T22:16:51.112Z,8.48
2023-08-14T22:21:53.203Z,9.90
2023-08-14T22:26:55.404Z,7.55
2023-08-14T22:31:57.605Z,11.38
2023-08-14T22:36:59.760Z,8.35
2023-08-14T22:42:01.835Z,8.93
2023-08-14T22:47:03.961Z,9.40
2023-08-14T22:52:06.255Z,10.45
2023-08-14T22:57:08.483Z,9.30
2023-08-14T23:02:10.771Z,9.75
2023-08-14T23:07:12.842Z,9.05
2023-08-14T23:12:14.914Z,10.80
2023-08-14T23:17:17.311Z,7.55
2023-08-14T23:22:19.437Z,8.77
2023-08-14T23:27:21.800Z,12.73
2023-08-14T23:32:24.050Z,8.65
2023-08-14T23:37:26.878Z,13.15
2023-08-14T23:42:29.060Z,10.57
2023-08-14T23:47:31.220Z,10.30
2023-08-14T23:52:33.489Z,6.95
2023-08-14T23:57:35.583Z,8.93
